createdAt,value
2024-01-10T00:02:21.922Z,62.06
2024-01-10T00:04:48.442Z,62.60
2024-01-10T00:07:16.173Z,62.76
2024-01-10T00:09:42.560Z,63.18
2024-01-10T00:12:09.005Z,63.10
2024-01-10T00:14:35.408Z,64.48
2024-01-10T00:17:01.814Z,65.69
2024-01-10T00:19:28.305Z,65.06
2024-01-10T00:21:54.791Z,64.43
2024-01-10T00:24:21.213Z,64.11
2024-01-10T00:26:47.686Z,64.65
2024-01-10T00:29:14.141Z,65.39
2024-01-10T00:31:41.029Z,64.26
2024-01-10T00:34:07.511Z,64.41
2024-01-10T00:36:34.003Z,66.43
2024-01-10T00:39:00.502Z,67.76
2024-01-10T00:41:26.939Z,67.24
2024-01-10T00:43:53.406Z,66.16
2024-01-10T00:46:19.774Z,67.96
2024-01-10T00:48:46.135Z,67.98
2024-01-10T00:51:12.613Z,68.59
2024-01-10T00:53:43.405Z,67.30
2024-01-10T00:56:10.446Z,67.95
2024-01-10T00:58:37.336Z,67.48
2024-01-10T01:01:04.339Z,70.13
2024-01-10T01:03:30.757Z,69.72
2024-01-10T01:05:57.313Z,69.44
2024-01-10T01:08:23.832Z,71.38
2024-01-10T01:10:50.315Z,71.20
2024-01-10T01:13:16.704Z,69.04
2024-01-10T01:15:43.100Z,69.67
2024-01-10T01:18:11.182Z,68.41
2024-01-10T01:20:37.669Z,69.19
2024-01-10T01:23:04.462Z,68.51
2024-01-10T01:25:30.844Z,72.81
2024-01-10T01:27:57.541Z,71.52
2024-01-10T01:30:24.003Z,71.98
2024-01-10T01:32:50.486Z,69.50
2024-01-10T01:35:22.721Z,68.43
2024-01-10T01:37:49.803Z,69.96
2024-01-10T01:40:16.263Z,70.53
2024-01-10T01:42:45.802Z,69.88
2024-01-10T01:45:13.413Z,67.53
2024-01-10T01:47:40.602Z,66.61
2024-01-10T01:50:11.439Z,66.23
2024-01-10T01:52:39.083Z,66.01
2024-01-10T01:55:07.523Z,67.36
2024-01-10T01:57:34.005Z,65.76
2024-01-10T02:00:00.464Z,65.82
2024-01-10T02:02:27.423Z,65.72
2024-01-10T02:04:54.664Z,66.24
2024-01-10T02:07:21.086Z,66.53
2024-01-10T02:09:47.470Z,66.09
2024-01-10T02:12:14.048Z,66.25
2024-01-10T02:14:40.517Z,66.16
2024-01-10T02:17:07.002Z,65.58
2024-01-10T02:19:35.782Z,65.13
2024-01-10T02:22:03.807Z,65.19
2024-01-10T02:24:30.147Z,65.12
2024-01-10T02:26:56.992Z,65.82
2024-01-10T02:29:25.086Z,66.87
2024-01-10T02:31:51.513Z,67.61
2024-01-10T02:34:18.012Z,66.51
2024-01-10T02:36:44.383Z,65.90
2024-01-10T02:39:10.717Z,66.19
2024-01-10T02:41:37.579Z,67.05
2024-01-10T02:44:04.509Z,66.93
2024-01-10T02:46:30.978Z,67.36
2024-01-10T02:48:57.569Z,66.39
2024-01-10T02:51:25.945Z,66.20
2024-01-10T02:53:52.274Z,66.50
2024-01-10T02:56:18.745Z,67.31
2024-01-10T02:58:45.254Z,69.11
2024-01-10T03:01:11.806Z,68.07
2024-01-10T03:03:38.355Z,68.43
2024-01-10T03:06:04.989Z,67.55
2024-01-10T03:08:31.380Z,70.85
2024-01-10T03:10:57.742Z,67.44
2024-01-10T03:13:24.116Z,67.11
2024-01-10T03:15:50.482Z,67.30
2024-01-10T03:18:16.995Z,69.71
2024-01-10T03:20:43.508Z,69.28
2024-01-10T03:23:09.897Z,71.39
2024-01-10T03:25:36.300Z,69.76
2024-01-10T03:28:02.713Z,68.56
2024-01-10T03:30:29.078Z,67.69
2024-01-10T03:32:55.538Z,68.89
2024-01-10T03:35:22.107Z,69.49
2024-01-10T03:37:48.542Z,71.47
2024-01-10T03:40:14.980Z,71.68
2024-01-10T03:42:41.336Z,70.47
2024-01-10T03:45:07.753Z,69.84
2024-01-10T03:47:34.184Z,70.19
2024-01-10T03:50:00.782Z,69.99
2024-01-10T03:52:27.282Z,71.42
2024-01-10T03:54:53.643Z,68.54
2024-01-10T03:57:20.030Z,69.32
2024-01-10T03:59:46.408Z,69.95
2024-01-10T04:02:12.814Z,70.55
2024-01-10T04:04:40.051Z,69.25
2024-01-10T04:07:07.255Z,67.69
2024-01-10T04:09:33.605Z,68.47
2024-01-10T04:11:59.947Z,68.57
2024-01-10T04:14:26.358Z,68.56
2024-01-10T04:16:54.678Z,67.88
2024-01-10T04:19:21.825Z,67.64
2024-01-10T04:21:48.263Z,68.02
2024-01-10T04:24:14.690Z,67.70
2024-01-10T04:26:41.128Z,68.61
2024-01-10T04:29:07.525Z,68.69
2024-01-10T04:31:34.042Z,69.80
2024-01-10T04:34:00.448Z,69.47
2024-01-10T04:36:26.830Z,69.04
2024-01-10T04:38:53.420Z,69.99
2024-01-10T04:41:20.250Z,71.25
2024-01-10T04:43:46.790Z,72.31
2024-01-10T04:46:13.157Z,72.14
2024-01-10T04:48:39.675Z,71.19
2024-01-10T04:51:06.140Z,71.22
2024-01-10T04:53:32.513Z,70.58
2024-01-10T04:55:59.040Z,69.18
2024-01-10T04:58:25.436Z,71.60
2024-01-10T05:00:51.894Z,72.13
2024-01-10T05:03:18.544Z,72.93
2024-01-10T05:05:45.127Z,71.78
2024-01-10T05:08:11.646Z,70.66
2024-01-10T05:10:38.082Z,70.31
2024-01-10T05:13:04.685Z,68.04
2024-01-10T05:15:31.004Z,67.20
2024-01-10T05:17:57.371Z,67.16
2024-01-10T05:20:23.841Z,66.69
2024-01-10T05:22:50.239Z,66.93
2024-01-10T05:25:19.374Z,67.42
2024-01-10T05:27:45.749Z,67.01
2024-01-10T05:30:13.839Z,67.06
2024-01-10T05:32:40.251Z,65.78
2024-01-10T05:35:07.230Z,66.05
2024-01-10T05:37:34.057Z,66.45
2024-01-10T05:40:00.470Z,66.78
2024-01-10T05:42:27.652Z,65.68
2024-01-10T05:44:54.168Z,65.23
2024-01-10T05:47:20.616Z,65.60
2024-01-10T05:49:47.057Z,65.56
2024-01-10T05:52:13.500Z,66.00
2024-01-10T05:54:40.210Z,66.03
2024-01-10T05:57:06.858Z,65.62
2024-01-10T05:59:33.293Z,65.18
2024-01-10T06:02:00.016Z,64.51
2024-01-10T06:04:26.646Z,64.45
2024-01-10T06:06:53.003Z,65.25
2024-01-10T06:09:22.978Z,64.68
2024-01-10T06:11:49.688Z,64.54
2024-01-10T06:14:16.420Z,64.97
2024-01-10T06:16:42.849Z,64.88
2024-01-10T06:19:09.334Z,64.73
2024-01-10T06:21:35.684Z,65.79
2024-01-10T06:24:02.060Z,64.65
2024-01-10T06:26:28.972Z,65.08
2024-01-10T06:28:55.529Z,65.11
2024-01-10T06:31:21.967Z,64.50
2024-01-10T06:33:48.424Z,64.48
2024-01-10T06:36:14.814Z,64.76
2024-01-10T06:38:41.431Z,64.81
2024-01-10T06:41:11.729Z,64.56
2024-01-10T06:43:38.289Z,64.43
2024-01-10T06:46:04.858Z,64.77
2024-01-10T06:48:32.735Z,65.09
2024-01-10T06:50:59.865Z,65.67
2024-01-10T06:53:26.364Z,64.69
2024-01-10T06:55:53.106Z,65.52
2024-01-10T06:58:19.538Z,65.33
2024-01-10T07:00:45.947Z,65.81
2024-01-10T07:03:12.373Z,64.90
2024-01-10T07:05:38.797Z,65.19
2024-01-10T07:08:05.379Z,64.76
2024-01-10T07:10:31.762Z,65.23
2024-01-10T07:12:58.432Z,65.79
2024-01-10T07:15:24.933Z,64.76
2024-01-10T07:17:51.564Z,65.68
2024-01-10T07:20:18.024Z,65.21
2024-01-10T07:22:45.284Z,64.64
2024-01-10T07:25:15.170Z,63.96
2024-01-10T07:27:42.205Z,64.24
2024-01-10T07:30:14.492Z,64.69
2024-01-10T07:32:45.015Z,64.15
2024-01-10T07:35:12.063Z,65.11
2024-01-10T07:37:39.075Z,64.96
2024-01-10T07:40:07.365Z,64.64
2024-01-10T07:42:34.535Z,65.56
2024-01-10T07:45:01.430Z,64.78
2024-01-10T07:47:28.036Z,64.75
2024-01-10T07:49:54.542Z,64.82
2024-01-10T07:52:23.802Z,64.60
2024-01-10T07:54:51.532Z,66.46
2024-01-10T07:57:19.297Z,66.43
2024-01-10T07:59:46.345Z,66.84
2024-01-10T08:02:12.972Z,65.80
2024-01-10T08:04:39.421Z,65.92
2024-01-10T08:07:05.816Z,65.18
2024-01-10T08:09:32.253Z,65.48
2024-01-10T08:11:58.816Z,64.98
2024-01-10T08:14:25.482Z,64.47
2024-01-10T08:19:20.663Z,64.12
2024-01-10T08:21:47.137Z,63.99
2024-01-10T08:24:13.824Z,64.18
2024-01-10T08:26:40.454Z,64.48
2024-01-10T08:29:06.848Z,63.74
2024-01-10T08:31:33.292Z,63.95
2024-01-10T08:33:59.677Z,63.23
2024-01-10T08:36:26.133Z,64.12
2024-01-10T08:38:53.146Z,64.60
2024-01-10T08:41:20.623Z,64.44
2024-01-10T08:43:50.166Z,64.03
2024-01-10T08:46:16.631Z,63.59
2024-01-10T08:48:43.640Z,63.25
2024-01-10T08:51:11.239Z,63.12
2024-01-10T08:53:37.632Z,63.78
2024-01-10T08:56:04.200Z,64.52
2024-01-10T08:58:30.550Z,64.11
2024-01-10T09:00:56.992Z,64.62
2024-01-10T09:03:23.394Z,64.70
2024-01-10T09:05:57.318Z,64.56
2024-01-10T09:08:31.831Z,63.95
2024-01-10T09:10:58.310Z,64.15
2024-01-10T09:13:24.754Z,63.84
2024-01-10T09:15:51.122Z,63.23
2024-01-10T09:18:17.769Z,63.54
2024-01-10T09:20:44.211Z,63.30
2024-01-10T09:23:11.771Z,64.14
2024-01-10T09:25:38.189Z,63.86
2024-01-10T09:28:07.670Z,63.51
2024-01-10T09:30:34.242Z,63.54
2024-01-10T09:33:01.458Z,63.81
2024-01-10T09:35:28.034Z,63.38
2024-01-10T09:37:54.917Z,63.37
2024-01-10T09:40:28.589Z,64.11
2024-01-10T09:42:58.182Z,64.17
2024-01-10T09:45:25.341Z,64.05
2024-01-10T09:47:57.157Z,64.94
2024-01-10T09:50:24.706Z,64.97
2024-01-10T09:52:53.526Z,65.38
2024-01-10T09:55:25.715Z,65.16
2024-01-10T09:57:53.285Z,64.48
2024-01-10T10:00:19.790Z,63.99
2024-01-10T10:02:48.812Z,64.24
2024-01-10T10:05:17.162Z,65.14
2024-01-10T10:07:54.386Z,65.04
2024-01-10T10:10:21.001Z,64.25
2024-01-10T10:12:49.168Z,63.95
2024-01-10T10:15:17.561Z,63.78
2024-01-10T10:17:49.264Z,63.44
2024-01-10T10:20:22.729Z,63.44
2024-01-10T10:23:03.117Z,63.74
2024-01-10T10:25:35.001Z,63.81
2024-01-10T10:28:03.582Z,63.70
2024-01-10T10:30:31.692Z,63.81
2024-01-10T10:32:58.352Z,64.39
2024-01-10T10:35:33.645Z,64.15
2024-01-10T10:38:04.803Z,63.51
2024-01-10T10:40:31.174Z,63.93
2024-01-10T10:42:58.146Z,64.33
2024-01-10T10:45:27.532Z,63.50
2024-01-10T10:47:59.169Z,62.77
2024-01-10T10:50:29.480Z,63.93
2024-01-10T10:52:57.059Z,62.65
2024-01-10T10:55:24.735Z,63.63
2024-01-10T10:58:00.976Z,63.44
2024-01-10T11:00:32.035Z,63.43
2024-01-10T11:02:58.726Z,63.06
2024-01-10T11:05:26.332Z,62.98
2024-01-10T11:07:57.910Z,63.27
2024-01-10T11:10:31.194Z,63.17
2024-01-10T11:13:27.842Z,63.11
2024-01-10T11:16:08.474Z,63.04
2024-01-10T11:19:07.134Z,63.37
2024-01-10T11:21:52.148Z,63.77
2024-01-10T11:24:19.433Z,63.02
2024-01-10T11:26:46.912Z,63.08
2024-01-10T11:29:14.005Z,62.79
2024-01-10T11:31:40.619Z,63.12
2024-01-10T11:34:07.280Z,63.05
2024-01-10T11:36:33.791Z,63.69
2024-01-10T11:39:03.381Z,63.20
2024-01-10T11:41:36.420Z,63.15
2024-01-10T11:44:12.582Z,63.21
2024-01-10T11:46:39.864Z,64.22
2024-01-10T11:49:13.335Z,62.93
2024-01-10T11:51:39.860Z,64.29
2024-01-10T11:54:06.727Z,64.57
2024-01-10T11:56:43.451Z,64.17
2024-01-10T11:59:17.088Z,63.27
2024-01-10T12:01:43.680Z,63.27
2024-01-10T12:04:15.045Z,63.60
2024-01-10T12:06:48.270Z,64.04
2024-01-10T12:09:15.250Z,62.92
2024-01-10T12:11:44.988Z,62.58
2024-01-10T12:14:11.617Z,64.18
2024-01-10T12:16:38.144Z,62.53
2024-01-10T12:19:04.638Z,63.45
2024-01-10T12:21:31.515Z,63.63
2024-01-10T12:23:57.948Z,62.13
2024-01-10T12:26:24.340Z,62.90
2024-01-10T12:28:57.994Z,63.40
2024-01-10T12:31:26.613Z,62.83
2024-01-10T12:33:53.103Z,62.07
2024-01-10T12:36:20.879Z,62.63
2024-01-10T12:38:47.316Z,61.94
2024-01-10T12:41:16.537Z,62.20
2024-01-10T12:43:43.492Z,62.21
2024-01-10T12:46:13.171Z,62.85
2024-01-10T12:48:42.522Z,63.59
2024-01-10T12:51:12.800Z,61.87
2024-01-10T12:53:42.142Z,61.16
2024-01-10T12:56:09.919Z,61.41
2024-01-10T12:58:37.704Z,64.48
2024-01-10T13:01:07.003Z,62.42
2024-01-10T13:03:33.605Z,63.31
2024-01-10T13:06:00.027Z,62.81
2024-01-10T13:08:26.629Z,62.17
2024-01-10T13:10:53.135Z,61.85
2024-01-10T13:13:22.520Z,61.71
2024-01-10T13:15:49.930Z,62.06
2024-01-10T13:18:16.853Z,61.21
2024-01-10T13:20:44.245Z,61.71
2024-01-10T13:23:10.862Z,61.41
2024-01-10T13:25:38.345Z,62.51
2024-01-10T13:28:07.913Z,63.27
2024-01-10T13:30:34.350Z,62.23
2024-01-10T13:33:00.957Z,61.50
2024-01-10T13:35:28.071Z,62.34
2024-01-10T13:37:54.456Z,62.33
2024-01-10T13:40:25.236Z,62.75
2024-01-10T13:42:52.005Z,63.68
2024-01-10T13:45:18.403Z,61.85
2024-01-10T13:47:44.867Z,61.69
2024-01-10T13:50:11.587Z,61.43
2024-01-10T13:52:38.095Z,60.88
2024-01-10T13:55:05.840Z,62.42
2024-01-10T13:57:35.665Z,61.24
2024-01-10T14:00:03.057Z,61.99
2024-01-10T14:02:29.511Z,63.64
2024-01-10T14:04:58.678Z,62.04
2024-01-10T14:07:25.676Z,62.05
2024-01-10T14:09:55.559Z,60.74
2024-01-10T14:12:21.930Z,62.46
2024-01-10T14:14:48.269Z,62.77
2024-01-10T14:17:14.976Z,62.26
2024-01-10T14:19:41.389Z,63.27
2024-01-10T14:22:16.914Z,63.97
2024-01-10T14:24:48.696Z,63.42
2024-01-10T14:27:15.096Z,64.52
2024-01-10T14:29:41.460Z,63.14
2024-01-10T14:32:17.069Z,63.95
2024-01-10T14:34:45.976Z,63.72
2024-01-10T14:37:12.751Z,63.78
2024-01-10T14:39:39.922Z,64.07
2024-01-10T14:42:08.217Z,65.96
2024-01-10T14:44:35.270Z,67.00
2024-01-10T14:47:07.269Z,66.65
2024-01-10T14:49:37.674Z,66.57
2024-01-10T14:52:04.550Z,64.44
2024-01-10T14:54:31.554Z,66.06
2024-01-10T14:56:57.953Z,65.68
2024-01-10T14:59:32.361Z,66.24
2024-01-10T15:02:08.094Z,65.58
2024-01-10T15:04:41.371Z,64.15
2024-01-10T15:07:08.265Z,65.54
2024-01-10T15:09:37.623Z,64.60
2024-01-10T15:12:09.416Z,64.68
2024-01-10T15:14:37.111Z,64.79
2024-01-10T15:17:06.977Z,65.70
2024-01-10T15:19:33.721Z,64.50
2024-01-10T15:22:00.530Z,64.60
2024-01-10T15:24:28.171Z,66.77
2024-01-10T15:26:54.834Z,66.47
2024-01-10T15:29:21.240Z,65.21
2024-01-10T15:31:47.745Z,64.42
2024-01-10T15:34:14.203Z,63.63
2024-01-10T15:36:43.131Z,67.18
2024-01-10T15:39:09.537Z,66.48
2024-01-10T15:41:36.024Z,66.11
2024-01-10T15:44:02.415Z,64.62
2024-01-10T15:46:29.039Z,63.33
2024-01-10T15:48:55.690Z,62.88
2024-01-10T15:51:22.217Z,63.85
2024-01-10T15:53:51.256Z,63.45
2024-01-10T15:56:18.955Z,63.91
2024-01-10T15:58:45.394Z,65.50
2024-01-10T16:01:11.837Z,65.40
2024-01-10T16:03:38.262Z,65.17
2024-01-10T16:06:05.290Z,63.84
2024-01-10T16:08:31.846Z,64.66
2024-01-10T16:10:58.278Z,62.93
2024-01-10T16:13:24.812Z,61.63
2024-01-10T16:15:58.287Z,61.34
2024-01-10T16:18:24.814Z,61.26
2024-01-10T16:20:52.908Z,61.81
2024-01-10T16:23:19.345Z,64.59
2024-01-10T16:25:45.786Z,64.93
2024-01-10T16:28:12.234Z,64.36
2024-01-10T16:30:38.620Z,61.71
2024-01-10T16:33:05.107Z,61.86
2024-01-10T16:35:31.760Z,63.08
2024-01-10T16:37:58.226Z,63.36
2024-01-10T16:40:24.635Z,63.20
2024-01-10T16:42:51.062Z,63.64
2024-01-10T16:45:17.824Z,64.52
2024-01-10T16:47:44.401Z,65.87
2024-01-10T16:50:10.960Z,66.89
2024-01-10T16:52:39.530Z,63.75
2024-01-10T16:55:06.420Z,62.72
2024-01-10T16:57:32.848Z,62.35
2024-01-10T16:59:59.258Z,62.97
2024-01-10T17:02:25.719Z,61.76
2024-01-10T17:04:52.277Z,62.53
2024-01-10T17:07:18.698Z,63.08
2024-01-10T17:09:45.740Z,62.49
2024-01-10T17:12:12.130Z,63.20
2024-01-10T17:14:38.504Z,61.77
2024-01-10T17:17:07.819Z,62.44
2024-01-10T17:19:34.202Z,61.91
2024-01-10T17:22:00.534Z,61.61
2024-01-10T17:24:26.890Z,61.59
2024-01-10T17:26:53.417Z,62.59
2024-01-10T17:29:19.893Z,62.82
2024-01-10T17:31:46.398Z,61.13
2024-01-10T17:34:12.843Z,60.53
2024-01-10T17:36:39.279Z,62.53
2024-01-10T17:39:05.952Z,62.22
2024-01-10T17:41:32.587Z,61.89
2024-01-10T17:44:00.029Z,63.30
2024-01-10T17:46:26.552Z,62.57
2024-01-10T17:48:53.440Z,63.77
2024-01-10T17:51:22.675Z,63.89
2024-01-10T17:53:50.057Z,61.76
2024-01-10T17:56:16.763Z,63.12
2024-01-10T17:58:43.525Z,62.61
2024-01-10T18:01:09.905Z,63.17
2024-01-10T18:03:36.609Z,61.62
2024-01-10T18:06:03.103Z,62.29
2024-01-10T18:08:29.667Z,62.30
2024-01-10T18:10:56.799Z,62.19
2024-01-10T18:13:24.001Z,62.24
2024-01-10T18:15:50.482Z,61.87
2024-01-10T18:18:17.243Z,60.94
2024-01-10T18:20:43.791Z,63.40
2024-01-10T18:23:10.275Z,63.10
2024-01-10T18:25:38.410Z,61.53
2024-01-10T18:28:06.686Z,62.20
2024-01-10T18:30:33.094Z,61.87
2024-01-10T18:33:02.308Z,62.23
2024-01-10T18:35:28.929Z,62.04
2024-01-10T18:37:55.462Z,62.72
2024-01-10T18:40:21.878Z,62.45
2024-01-10T18:42:48.298Z,61.35
2024-01-10T18:45:14.706Z,60.41
2024-01-10T18:47:41.242Z,60.41
2024-01-10T18:50:08.746Z,61.39
2024-01-10T18:52:35.344Z,60.47
2024-01-10T18:55:01.818Z,60.10
2024-01-10T18:57:28.665Z,60.58
2024-01-10T18:59:55.291Z,61.54
2024-01-10T19:02:22.804Z,61.58
2024-01-10T19:04:49.347Z,63.12
2024-01-10T19:07:16.121Z,61.99
2024-01-10T19:09:43.766Z,62.26
2024-01-10T19:12:10.307Z,61.16
2024-01-10T19:14:37.116Z,61.13
2024-01-10T19:17:04.401Z,61.06
2024-01-10T19:19:31.877Z,61.59
2024-01-10T19:22:03.379Z,60.38
2024-01-10T19:24:29.818Z,60.20
2024-01-10T19:26:56.264Z,60.86
2024-01-10T19:29:22.610Z,61.90
2024-01-10T19:31:49.145Z,61.48
2024-01-10T19:34:15.592Z,62.83
2024-01-10T19:36:42.128Z,63.37
2024-01-10T19:39:08.644Z,64.39
2024-01-10T19:41:35.204Z,64.71
2024-01-10T19:44:01.612Z,63.90
2024-01-10T19:46:28.225Z,63.28
2024-01-10T19:48:54.694Z,62.79
2024-01-10T19:51:21.432Z,63.85
2024-01-10T19:53:50.829Z,63.39
2024-01-10T19:56:17.992Z,63.01
2024-01-10T19:58:45.197Z,63.33
2024-01-10T20:01:11.962Z,63.70
2024-01-10T20:03:38.417Z,65.91
2024-01-10T20:06:05.305Z,63.84
2024-01-10T20:08:31.935Z,62.09
2024-01-10T20:10:58.616Z,62.98
2024-01-10T20:13:25.660Z,65.30
2024-01-10T20:15:52.311Z,63.53
2024-01-10T20:18:19.004Z,64.07
2024-01-10T20:20:47.304Z,63.46
2024-01-10T20:23:13.948Z,62.01
2024-01-10T20:25:40.750Z,61.74
2024-01-10T20:28:09.417Z,61.81
2024-01-10T20:30:35.829Z,63.26
2024-01-10T20:33:05.746Z,65.21
2024-01-10T20:35:32.259Z,63.42
2024-01-10T20:37:58.669Z,63.90
2024-01-10T20:40:25.176Z,64.76
2024-01-10T20:42:53.178Z,65.20
2024-01-10T20:45:20.368Z,67.20
2024-01-10T20:47:47.297Z,65.86
2024-01-10T20:50:13.956Z,66.20
2024-01-10T20:52:40.552Z,65.48
2024-01-10T20:55:07.149Z,66.51
2024-01-10T20:57:33.805Z,66.53
2024-01-10T21:00:04.493Z,64.29
2024-01-10T21:02:31.694Z,64.04
2024-01-10T21:04:58.356Z,64.61
2024-01-10T21:07:24.962Z,65.97
2024-01-10T21:09:51.395Z,66.49
2024-01-10T21:12:17.865Z,63.37
2024-01-10T21:14:46.098Z,63.97
2024-01-10T21:17:13.631Z,64.00
2024-01-10T21:19:40.454Z,64.00
2024-01-10T21:22:06.910Z,63.56
2024-01-10T21:24:37.802Z,64.49
2024-01-10T21:27:05.214Z,64.05
2024-01-10T21:29:31.753Z,66.38
2024-01-10T21:31:58.348Z,67.20
2024-01-10T21:34:24.852Z,64.45
2024-01-10T21:36:51.294Z,65.57
2024-01-10T21:39:17.699Z,66.03
2024-01-10T21:41:44.346Z,64.83
2024-01-10T21:44:10.945Z,65.94
2024-01-10T21:46:37.332Z,67.65
2024-01-10T21:49:03.792Z,68.13
2024-01-10T21:51:30.478Z,68.03
2024-01-10T21:53:56.901Z,66.43
2024-01-10T21:56:23.311Z,67.91
2024-01-10T21:58:50.000Z,68.57
2024-01-10T22:01:16.512Z,65.88
2024-01-10T22:03:43.741Z,65.39
2024-01-10T22:06:10.400Z,65.16
2024-01-10T22:08:38.770Z,64.65
2024-01-10T22:11:05.373Z,63.20
2024-01-10T22:13:31.822Z,63.05
2024-01-10T22:15:58.157Z,64.06
2024-01-10T22:18:24.965Z,65.70
2024-01-10T22:20:51.422Z,66.41
2024-01-10T22:23:17.831Z,65.96
2024-01-10T22:25:45.368Z,67.22
2024-01-10T22:28:13.246Z,68.48
2024-01-10T22:30:43.991Z,67.92
2024-01-10T22:33:10.757Z,70.14
2024-01-10T22:35:38.388Z,66.67
2024-01-10T22:38:05.570Z,64.97
2024-01-10T22:40:32.451Z,67.93
2024-01-10T22:43:00.173Z,68.33
2024-01-10T22:45:27.354Z,67.12
2024-01-10T22:47:54.515Z,65.43
2024-01-10T22:50:22.123Z,67.58
2024-01-10T22:52:48.828Z,68.18
2024-01-10T22:55:22.106Z,68.91
2024-01-10T22:57:54.459Z,66.47
2024-01-10T23:00:30.648Z,64.16
2024-01-10T23:02:59.206Z,64.20
2024-01-10T23:05:31.019Z,63.51
2024-01-10T23:08:04.402Z,64.04
2024-01-10T23:10:32.361Z,63.33
2024-01-10T23:13:00.768Z,64.49
2024-01-10T23:15:28.195Z,64.33
2024-01-10T23:17:54.759Z,63.72
2024-01-10T23:20:21.236Z,63.45
2024-01-10T23:22:48.220Z,67.68
2024-01-10T23:25:14.671Z,68.29
2024-01-10T23:27:44.348Z,66.81
2024-01-10T23:30:15.109Z,66.53
2024-01-10T23:32:43.565Z,66.42
2024-01-10T23:35:10.527Z,66.43
2024-01-10T23:37:37.053Z,65.33
2024-01-10T23:40:03.973Z,67.12
2024-01-10T23:42:30.385Z,65.18
2024-01-10T23:44:56.724Z,65.71
2024-01-10T23:47:23.378Z,64.83
2024-01-10T23:49:50.965Z,66.20
2024-01-10T23:52:17.440Z,68.09
2024-01-10T23:54:43.797Z,69.53
2024-01-10T23:57:10.163Z,69.59
2024-01-10T23:59:36.762Z,66.33
